Time;durP1;ratioP1;P1;durP2;ratioP2;P2;SDS_P1;SDS_P2;PMS_P1;PMS_P2;Temp;Humidity;BMP_temperature;BMP_pressure;BME280_temperature;BME280_humidity;BME280_pressure;Samples;Min_cycle;Max_cycle;Signal;HPM_P1;HPM_P2
2022/07/28 00:05:16;;;;;;;;;;;16.80;47.40;;;;;;4963368;28;19906;-92
2022/07/28 00:07:42;;;;;;;;;;;16.70;47.40;;;;;;4984186;28;19918;-90
2022/07/28 00:10:11;;;;;;;;;;;16.70;47.40;;;;;;5003071;28;19910;-91
2022/07/28 00:12:43;;;;;;;;;;;16.70;47.40;;;;;;4999936;28;19922;-92
2022/07/28 00:15:22;;;;;;;;;;;16.60;47.40;;;;;;4984690;28;19921;-91
2022/07/28 00:17:47;;;;;;;;;;;16.50;47.50;;;;;;4985548;28;19966;-89
2022/07/28 00:20:13;;;;;;;;;;;16.50;47.70;;;;;;5000795;28;19914;-90
2022/07/28 00:22:42;;;;;;;;;;;16.50;48.00;;;;;;5000521;28;19918;-91
2022/07/28 00:25:10;;;;;;;;;;;16.40;48.10;;;;;;5000576;28;19914;-91
2022/07/28 00:27:36;;;;;;;;;;;16.30;48.00;;;;;;4983757;28;19925;-92
2022/07/28 00:30:04;;;;;;;;;;;16.30;48.00;;;;;;5001155;28;19922;-91
2022/07/28 00:32:30;;;;;;;;;;;16.20;48.10;;;;;;4985091;28;20402;-92
2022/07/28 00:34:56;;;;;;;;;;;16.20;48.10;;;;;;5000384;28;19960;-91
2022/07/28 00:37:21;;;;;;;;;;;16.20;48.30;;;;;;4999439;28;20385;-91
2022/07/28 00:39:49;;;;;;;;;;;16.10;48.30;;;;;;4991064;28;19918;-91
2022/07/28 00:42:19;;;;;;;;;;;16.10;48.30;;;;;;4982410;28;19929;-90
2022/07/28 00:44:45;;;;;;;;;;;16.00;48.30;;;;;;4960328;28;19918;-90
2022/07/28 00:47:11;;;;;;;;;;;16.00;48.40;;;;;;4988803;28;19914;-91
2022/07/28 00:49:37;;;;;;;;;;;15.90;48.40;;;;;;4971475;28;19983;-90
2022/07/28 00:52:07;;;;;;;;;;;15.80;48.90;;;;;;4996619;28;20367;-90
2022/07/28 00:54:33;;;;;;;;;;;15.80;49.00;;;;;;4976417;28;19974;-90
2022/07/28 00:56:59;;;;;;;;;;;15.80;49.10;;;;;;4969301;28;19914;-91
2022/07/28 00:59:24;;;;;;;;;;;15.80;49.50;;;;;;4991818;28;19974;-90
2022/07/28 01:01:51;;;;;;;;;;;15.70;49.60;;;;;;4996463;28;19911;-92
2022/07/28 01:04:45;;;;;;;;;;;15.70;49.90;;;;;;4963664;28;19926;-91
2022/07/28 01:07:17;;;;;;;;;;;15.70;50.50;;;;;;4976262;28;20057;-90
2022/07/28 01:09:48;;;;;;;;;;;15.60;50.00;;;;;;4983247;28;20323;-90
2022/07/28 01:12:23;;;;;;;;;;;15.50;49.80;;;;;;4958547;29;19919;-90
2022/07/28 01:14:51;;;;;;;;;;;15.50;49.60;;;;;;4961475;28;19911;-90
2022/07/28 01:17:24;;;;;;;;;;;15.40;49.70;;;;;;4979930;28;19918;-91
2022/07/28 01:19:58;;;;;;;;;;;15.40;49.70;;;;;;4961699;28;19934;-89
2022/07/28 01:22:28;;;;;;;;;;;15.40;49.70;;;;;;4977926;28;19918;-91
2022/07/28 01:25:03;;;;;;;;;;;15.30;49.80;;;;;;4994760;28;19965;-88
2022/07/28 01:27:35;;;;;;;;;;;15.30;49.80;;;;;;4978097;28;19922;-90
2022/07/28 01:30:06;;;;;;;;;;;15.30;49.80;;;;;;4979333;28;20022;-89
2022/07/28 01:32:36;;;;;;;;;;;15.30;49.90;;;;;;4978327;28;19954;-91
2022/07/28 01:35:04;;;;;;;;;;;15.20;49.90;;;;;;4979024;28;19914;-89
2022/07/28 01:37:31;;;;;;;;;;;15.30;49.80;;;;;;4994893;28;19972;-90
2022/07/28 01:39:58;;;;;;;;;;;15.20;50.10;;;;;;4978083;28;19911;-90
2022/07/28 01:42:26;;;;;;;;;;;15.20;50.60;;;;;;4977871;28;19922;-90
2022/07/28 01:44:53;;;;;;;;;;;15.20;50.80;;;;;;4978238;28;20381;-91
2022/07/28 01:47:22;;;;;;;;;;;15.20;50.70;;;;;;4978634;28;19922;-91
2022/07/28 01:49:49;;;;;;;;;;;15.20;50.50;;;;;;4990200;28;20330;-90
2022/07/28 01:52:15;;;;;;;;;;;15.20;50.60;;;;;;4962349;28;20018;-91
2022/07/28 01:54:43;;;;;;;;;;;15.10;50.50;;;;;;4958547;28;19918;-90
2022/07/28 01:57:09;;;;;;;;;;;15.10;50.50;;;;;;4975705;28;19922;-90
2022/07/28 01:59:37;;;;;;;;;;;15.10;50.60;;;;;;4975596;28;20665;-90
2022/07/28 02:02:03;;;;;;;;;;;15.10;50.60;;;;;;4976861;28;19918;-90
2022/07/28 02:04:47;;;;;;;;;;;15.10;50.70;;;;;;4985416;28;19910;-90
2022/07/28 02:07:13;;;;;;;;;;;15.10;50.70;;;;;;4974178;28;19929;-90
2022/07/28 02:09:40;;;;;;;;;;;15.00;51.10;;;;;;4974763;28;19910;-90
2022/07/28 02:12:06;;;;;;;;;;;15.00;51.80;;;;;;4970970;28;20351;-90
2022/07/28 02:14:35;;;;;;;;;;;15.00;52.00;;;;;;4959971;29;19918;-90
2022/07/28 02:17:11;;;;;;;;;;;15.00;51.80;;;;;;4958913;29;20371;-90
2022/07/28 02:19:38;;;;;;;;;;;15.00;51.70;;;;;;4978725;28;20267;-90
2022/07/28 02:22:04;;;;;;;;;;;15.00;51.50;;;;;;4993918;28;19914;-90
2022/07/28 02:24:30;;;;;;;;;;;15.00;51.40;;;;;;4971405;28;20012;-90
2022/07/28 02:27:00;;;;;;;;;;;15.00;51.30;;;;;;4976612;28;20240;-90
2022/07/28 02:29:29;;;;;;;;;;;15.00;51.20;;;;;;4975895;28;19914;-90
2022/07/28 02:32:13;;;;;;;;;;;15.00;51.20;;;;;;4977906;28;19918;-89
2022/07/28 02:34:40;;;;;;;;;;;15.00;51.30;;;;;;4965286;28;19950;-89
2022/07/28 02:37:08;;;;;;;;;;;15.00;51.30;;;;;;4974094;28;19918;-90
2022/07/28 02:39:39;;;;;;;;;;;15.10;51.30;;;;;;4975307;28;19910;-90
2022/07/28 02:42:08;;;;;;;;;;;15.10;51.20;;;;;;4990487;28;19930;-90
2022/07/28 02:44:40;;;;;;;;;;;15.10;51.20;;;;;;4972041;28;20389;-90
2022/07/28 02:47:07;;;;;;;;;;;15.10;51.30;;;;;;4990247;28;19929;-90
2022/07/28 02:49:34;;;;;;;;;;;15.10;51.20;;;;;;4985716;28;19914;-90
2022/07/28 02:52:00;;;;;;;;;;;15.10;51.20;;;;;;4993470;28;19981;-90
2022/07/28 02:54:27;;;;;;;;;;;15.20;51.20;;;;;;4967430;28;19915;-90
2022/07/28 02:56:54;;;;;;;;;;;15.10;51.20;;;;;;4964384;28;20371;-90
2022/07/28 02:59:20;;;;;;;;;;;15.10;51.20;;;;;;4977631;28;19910;-91
2022/07/28 03:01:46;;;;;;;;;;;15.10;51.20;;;;;;4972361;28;19937;-90
2022/07/28 03:04:13;;;;;;;;;;;15.10;51.30;;;;;;4977008;28;19914;-91
2022/07/28 03:06:42;;;;;;;;;;;15.10;51.40;;;;;;4959369;28;20355;-90
2022/07/28 03:09:08;;;;;;;;;;;15.10;51.30;;;;;;4967753;28;19917;-90
2022/07/28 03:11:33;;;;;;;;;;;15.10;51.20;;;;;;4974039;28;19918;-90
2022/07/28 03:13:59;;;;;;;;;;;15.10;51.30;;;;;;4978227;28;20254;-90
2022/07/28 03:16:25;;;;;;;;;;;15.10;51.30;;;;;;4993564;28;20283;-90
2022/07/28 03:18:51;;;;;;;;;;;15.10;51.30;;;;;;4983664;28;19911;-90
2022/07/28 03:21:16;;;;;;;;;;;15.10;51.30;;;;;;4957875;29;19922;-89
2022/07/28 03:23:44;;;;;;;;;;;15.10;51.40;;;;;;4958178;28;19917;-90
2022/07/28 03:26:33;;;;;;;;;;;15.00;51.50;;;;;;4957367;29;19925;-89
2022/07/28 03:28:59;;;;;;;;;;;15.10;51.70;;;;;;4939904;28;20382;-90
2022/07/28 03:31:24;;;;;;;;;;;15.10;51.90;;;;;;4957239;29;20005;-90
2022/07/28 03:33:51;;;;;;;;;;;15.10;52.10;;;;;;4956589;29;19918;-90
2022/07/28 03:36:20;;;;;;;;;;;15.10;52.20;;;;;;4957223;29;20295;-90
2022/07/28 03:38:57;;;;;;;;;;;15.00;52.10;;;;;;4956816;29;20356;-90
2022/07/28 03:41:24;;;;;;;;;;;15.00;52.40;;;;;;4956638;29;19930;-90
2022/07/28 03:43:49;;;;;;;;;;;15.00;52.50;;;;;;4957299;29;19918;-90
2022/07/28 03:46:17;;;;;;;;;;;15.00;52.60;;;;;;4957472;29;19970;-91
2022/07/28 03:48:43;;;;;;;;;;;15.00;52.90;;;;;;4941475;29;20282;-90
2022/07/28 03:51:08;;;;;;;;;;;15.00;53.00;;;;;;4956825;29;19919;-90
2022/07/28 03:53:34;;;;;;;;;;;15.00;53.00;;;;;;4958051;28;19911;-91
2022/07/28 03:56:02;;;;;;;;;;;15.10;53.30;;;;;;4957867;28;19961;-90
2022/07/28 03:58:27;;;;;;;;;;;15.20;53.70;;;;;;4956094;29;19993;-90
2022/07/28 04:00:53;;;;;;;;;;;15.30;53.90;;;;;;4971757;28;19976;-89
2022/07/28 04:03:18;;;;;;;;;;;15.30;53.90;;;;;;4969924;28;19964;-89
2022/07/28 04:05:44;;;;;;;;;;;15.40;53.90;;;;;;4975269;28;19918;-90
2022/07/28 04:08:10;;;;;;;;;;;15.40;53.90;;;;;;4974179;28;19918;-89
2022/07/28 04:10:35;;;;;;;;;;;15.40;53.80;;;;;;4985082;28;19925;-89
2022/07/28 04:13:01;;;;;;;;;;;15.40;53.70;;;;;;4990582;28;20365;-91
2022/07/28 04:15:27;;;;;;;;;;;15.50;53.90;;;;;;4965221;28;20367;-91
2022/07/28 04:17:53;;;;;;;;;;;15.60;53.60;;;;;;4986768;28;19910;-91
2022/07/28 04:20:20;;;;;;;;;;;15.60;53.40;;;;;;4991683;28;19911;-91
2022/07/28 04:22:46;;;;;;;;;;;15.60;53.30;;;;;;4992367;28;19917;-91
2022/07/28 04:25:12;;;;;;;;;;;15.60;53.30;;;;;;4974908;28;19950;-91
2022/07/28 04:27:38;;;;;;;;;;;15.50;53.40;;;;;;4968649;28;20338;-91
2022/07/28 04:30:07;;;;;;;;;;;15.60;53.30;;;;;;4996717;28;19917;-91
2022/07/28 04:32:33;;;;;;;;;;;15.60;53.30;;;;;;4990482;28;19944;-91
2022/07/28 04:34:59;;;;;;;;;;;15.60;53.20;;;;;;4995510;28;20004;-91
2022/07/28 04:37:24;;;;;;;;;;;15.60;53.40;;;;;;4977871;28;19925;-91
2022/07/28 04:39:50;;;;;;;;;;;15.50;53.70;;;;;;4967059;28;19914;-91
2022/07/28 04:42:17;;;;;;;;;;;15.50;53.80;;;;;;4995494;28;19928;-90
2022/07/28 04:44:43;;;;;;;;;;;15.60;53.90;;;;;;4993218;28;19918;-92
2022/07/28 04:47:08;;;;;;;;;;;15.60;54.20;;;;;;4978947;28;20276;-91
2022/07/28 04:49:34;;;;;;;;;;;15.70;54.50;;;;;;4974169;28;19910;-91
2022/07/28 04:51:59;;;;;;;;;;;15.80;54.90;;;;;;4975556;28;19922;-91
2022/07/28 04:54:25;;;;;;;;;;;16.00;54.60;;;;;;4981798;28;19978;-91
2022/07/28 04:56:51;;;;;;;;;;;16.00;54.50;;;;;;4998211;28;19964;-91
2022/07/28 04:59:17;;;;;;;;;;;16.20;55.40;;;;;;4993682;28;19984;-91
2022/07/28 05:01:43;;;;;;;;;;;16.50;55.80;;;;;;4973099;28;19944;-90
2022/07/28 05:04:09;;;;;;;;;;;16.70;55.40;;;;;;4986058;28;20330;-91
2022/07/28 05:06:34;;;;;;;;;;;16.90;54.90;;;;;;4971257;28;19918;-91
2022/07/28 05:09:03;;;;;;;;;;;17.00;54.50;;;;;;4982153;28;19925;-91
2022/07/28 05:11:28;;;;;;;;;;;17.00;54.40;;;;;;4994867;28;19964;-90
2022/07/28 05:13:54;;;;;;;;;;;17.20;54.30;;;;;;4994539;28;19918;-91
2022/07/28 05:16:19;;;;;;;;;;;17.30;54.20;;;;;;4979241;28;19914;-90
2022/07/28 05:18:45;;;;;;;;;;;17.40;54.50;;;;;;4993878;28;20294;-91
2022/07/28 05:21:10;;;;;;;;;;;17.70;55.40;;;;;;4977972;28;20523;-91
2022/07/28 05:23:36;;;;;;;;;;;18.20;56.00;;;;;;4978131;28;19918;-92
2022/07/28 05:26:03;;;;;;;;;;;18.70;57.30;;;;;;4976912;28;19937;-92
2022/07/28 05:28:29;;;;;;;;;;;19.30;57.40;;;;;;4974373;28;19919;-90
2022/07/28 05:30:54;;;;;;;;;;;20.00;56.90;;;;;;4976988;28;19910;-90
2022/07/28 05:33:20;;;;;;;;;;;20.70;55.50;;;;;;4974840;28;19922;-90
2022/07/28 05:35:50;;;;;;;;;;;21.30;54.10;;;;;;4974391;28;20799;-91
2022/07/28 05:38:16;;;;;;;;;;;21.70;52.70;;;;;;4993980;28;19977;-91
2022/07/28 05:40:41;;;;;;;;;;;22.20;51.90;;;;;;4971348;28;19950;-91
2022/07/28 05:43:07;;;;;;;;;;;22.70;51.10;;;;;;4980478;28;20017;-91
2022/07/28 05:45:33;;;;;;;;;;;23.30;50.30;;;;;;4974371;28;20518;-91
2022/07/28 05:47:58;;;;;;;;;;;23.80;49.40;;;;;;4982546;28;20295;-91
2022/07/28 05:50:24;;;;;;;;;;;24.50;48.60;;;;;;4978028;28;19972;-90
2022/07/28 05:52:50;;;;;;;;;;;25.10;47.40;;;;;;4982175;28;19941;-92
2022/07/28 05:55:16;;;;;;;;;;;25.70;45.20;;;;;;4979651;28;19915;-91
2022/07/28 05:57:42;;;;;;;;;;;26.30;43.50;;;;;;4977108;28;20355;-92
2022/07/28 06:00:12;;;;;;;;;;;26.80;41.60;;;;;;4995982;28;19921;-90
2022/07/28 06:02:38;;;;;;;;;;;27.30;40.80;;;;;;4988066;28;19962;-90
2022/07/28 06:05:05;;;;;;;;;;;27.80;39.80;;;;;;4988488;28;20371;-91
2022/07/28 06:07:31;;;;;;;;;;;28.30;38.40;;;;;;4986144;28;19922;-90
2022/07/28 06:09:56;;;;;;;;;;;28.70;37.50;;;;;;4985511;28;20398;-88
2022/07/28 06:12:22;;;;;;;;;;;29.10;36.00;;;;;;4979706;28;19961;-88
2022/07/28 06:14:47;;;;;;;;;;;29.50;35.10;;;;;;4978461;28;20000;-89
2022/07/28 06:17:14;;;;;;;;;;;29.90;34.90;;;;;;4979654;28;19914;-90
2022/07/28 06:19:43;;;;;;;;;;;30.30;34.20;;;;;;4979215;28;19914;-90
2022/07/28 06:22:30;;;;;;;;;;;30.70;33.50;;;;;;4979578;28;19941;-90
2022/07/28 06:24:55;;;;;;;;;;;31.20;33.30;;;;;;4985306;28;20285;-88
2022/07/28 06:27:24;;;;;;;;;;;31.70;31.80;;;;;;4985635;28;19955;-89
2022/07/28 06:29:49;;;;;;;;;;;32.10;30.80;;;;;;4975353;28;19915;-86
2022/07/28 06:32:15;;;;;;;;;;;32.40;30.20;;;;;;4981075;28;19940;-86
2022/07/28 06:34:41;;;;;;;;;;;32.70;29.90;;;;;;4987094;28;20010;-85
2022/07/28 06:37:06;;;;;;;;;;;33.00;29.30;;;;;;4983270;28;20399;-86
2022/07/28 06:39:32;;;;;;;;;;;33.30;28.90;;;;;;4973808;28;20255;-87
2022/07/28 06:41:57;;;;;;;;;;;33.60;28.30;;;;;;4989664;28;19962;-85
2022/07/28 06:44:23;;;;;;;;;;;33.90;28.10;;;;;;4956743;28;19965;-86
2022/07/28 06:46:49;;;;;;;;;;;34.30;27.90;;;;;;4990645;28;19930;-86
2022/07/28 06:49:17;;;;;;;;;;;34.60;27.00;;;;;;4983835;28;19985;-85
2022/07/28 06:51:42;;;;;;;;;;;34.70;26.10;;;;;;4974204;28;19922;-86
2022/07/28 06:54:08;;;;;;;;;;;34.70;25.70;;;;;;4971270;28;19924;-85
2022/07/28 06:56:33;;;;;;;;;;;35.00;25.50;;;;;;4964197;28;19926;-86
2022/07/28 06:59:02;;;;;;;;;;;35.30;24.80;;;;;;4976274;28;19920;-86
2022/07/28 07:01:27;;;;;;;;;;;35.20;23.30;;;;;;4979884;28;20330;-86
2022/07/28 07:03:52;;;;;;;;;;;35.20;22.90;;;;;;4982925;28;19918;-85
2022/07/28 07:06:19;;;;;;;;;;;35.20;22.90;;;;;;5006989;28;19922;-90
2022/07/28 07:08:46;;;;;;;;;;;35.00;22.30;;;;;;4985417;28;20009;-91
2022/07/28 07:11:12;;;;;;;;;;;34.80;21.60;;;;;;4980187;28;19971;-91
2022/07/28 07:13:40;;;;;;;;;;;34.70;22.00;;;;;;4983249;28;20001;-91
2022/07/28 07:16:05;;;;;;;;;;;34.70;21.40;;;;;;4978726;28;19977;-92
2022/07/28 07:18:31;;;;;;;;;;;34.40;21.70;;;;;;4981884;28;19922;-91
2022/07/28 07:20:56;;;;;;;;;;;34.20;22.00;;;;;;4979268;28;19915;-90
2022/07/28 07:23:22;;;;;;;;;;;34.10;22.10;;;;;;4983399;28;20429;-91
2022/07/28 07:25:47;;;;;;;;;;;34.20;22.10;;;;;;4992847;28;19936;-92
2022/07/28 07:28:13;;;;;;;;;;;34.20;22.30;;;;;;4982563;28;19928;-91
2022/07/28 07:30:38;;;;;;;;;;;34.20;22.40;;;;;;4987302;28;20554;-91
2022/07/28 07:33:04;;;;;;;;;;;34.40;22.00;;;;;;4979441;28;20906;-92
2022/07/28 07:35:36;;;;;;;;;;;34.40;21.40;;;;;;4982799;28;19925;-91
2022/07/28 07:38:02;;;;;;;;;;;34.30;21.20;;;;;;4987655;28;19917;-92
2022/07/28 07:40:35;;;;;;;;;;;34.20;21.70;;;;;;4993669;28;19925;-92
2022/07/28 07:43:00;;;;;;;;;;;34.00;21.70;;;;;;4989334;28;19929;-91
2022/07/28 07:45:27;;;;;;;;;;;33.80;21.90;;;;;;4990734;28;19914;-91
2022/07/28 07:48:06;;;;;;;;;;;33.70;21.70;;;;;;4983378;28;19922;-91
2022/07/28 07:50:34;;;;;;;;;;;33.40;22.00;;;;;;4990739;28;19922;-91
2022/07/28 07:53:00;;;;;;;;;;;33.40;22.40;;;;;;4983466;28;19972;-90
2022/07/28 07:55:26;;;;;;;;;;;33.40;22.80;;;;;;4998245;28;19914;-89
2022/07/28 07:57:51;;;;;;;;;;;33.50;23.00;;;;;;4982135;28;20696;-91
2022/07/28 08:00:17;;;;;;;;;;;33.70;22.70;;;;;;4982413;28;19919;-90
2022/07/28 08:02:43;;;;;;;;;;;33.90;22.60;;;;;;4984007;28;19921;-90
2022/07/28 08:05:09;;;;;;;;;;;34.00;22.40;;;;;;4995080;28;19914;-91
2022/07/28 08:07:35;;;;;;;;;;;34.20;22.50;;;;;;4991052;28;19973;-91
2022/07/28 08:10:01;;;;;;;;;;;34.40;22.40;;;;;;4990467;28;19914;-91
2022/07/28 08:12:29;;;;;;;;;;;34.70;22.50;;;;;;4990566;28;19917;-91
2022/07/28 08:14:55;;;;;;;;;;;34.90;22.10;;;;;;4997414;28;19956;-91
2022/07/28 08:17:22;;;;;;;;;;;35.10;22.20;;;;;;4998079;28;19922;-92
2022/07/28 08:19:47;;;;;;;;;;;35.50;22.00;;;;;;4985715;28;20319;-91
2022/07/28 08:22:13;;;;;;;;;;;35.80;21.40;;;;;;4993714;28;19999;-91
2022/07/28 08:24:40;;;;;;;;;;;35.90;20.90;;;;;;4983841;28;19918;-92
2022/07/28 08:27:05;;;;;;;;;;;36.00;20.80;;;;;;4985408;28;19921;-91
2022/07/28 08:29:31;;;;;;;;;;;36.10;20.50;;;;;;4995161;28;19922;-91
2022/07/28 08:31:57;;;;;;;;;;;36.10;20.30;;;;;;4995271;28;19914;-91
2022/07/28 08:34:25;;;;;;;;;;;36.20;20.10;;;;;;4984034;28;19914;-91
2022/07/28 08:36:53;;;;;;;;;;;36.30;20.30;;;;;;4997027;28;20396;-90
2022/07/28 08:39:19;;;;;;;;;;;36.50;20.40;;;;;;5005610;28;19918;-92
2022/07/28 08:41:58;;;;;;;;;;;36.80;20.00;;;;;;4994499;28;19933;-91
2022/07/28 08:44:26;;;;;;;;;;;36.90;19.80;;;;;;5005675;28;19914;-91
2022/07/28 08:46:52;;;;;;;;;;;37.00;19.20;;;;;;4994821;28;19942;-91
2022/07/28 08:49:21;;;;;;;;;;;37.20;19.70;;;;;;4966299;28;19910;-92
2022/07/28 08:51:47;;;;;;;;;;;37.40;19.10;;;;;;4987718;28;20023;-90
2022/07/28 08:54:18;;;;;;;;;;;37.40;18.90;;;;;;4998170;28;19938;-90
2022/07/28 08:56:44;;;;;;;;;;;37.70;19.00;;;;;;4979674;28;19909;-90
2022/07/28 08:59:09;;;;;;;;;;;37.80;18.70;;;;;;4988454;28;19910;-90
2022/07/28 09:01:36;;;;;;;;;;;37.90;18.40;;;;;;4983827;28;19894;-91
2022/07/28 09:04:01;;;;;;;;;;;37.70;18.40;;;;;;4998474;28;20353;-89
2022/07/28 09:06:30;;;;;;;;;;;37.60;18.90;;;;;;4997291;28;19922;-91
2022/07/28 09:08:55;;;;;;;;;;;37.60;18.80;;;;;;4987884;28;19949;-90
2022/07/28 09:11:21;;;;;;;;;;;37.70;18.60;;;;;;4995691;28;19922;-89
2022/07/28 09:13:46;;;;;;;;;;;37.80;18.90;;;;;;4991426;28;19916;-90
2022/07/28 09:16:13;;;;;;;;;;;37.90;18.30;;;;;;4981987;28;19924;-90
2022/07/28 09:18:39;;;;;;;;;;;38.00;18.40;;;;;;4983737;28;19911;-89
2022/07/28 09:21:05;;;;;;;;;;;38.00;18.30;;;;;;4984572;28;19997;-91
2022/07/28 09:23:47;;;;;;;;;;;38.10;18.50;;;;;;4987855;28;19910;-90
2022/07/28 09:26:15;;;;;;;;;;;38.20;18.40;;;;;;4992734;28;19922;-90
2022/07/28 09:28:48;;;;;;;;;;;38.30;18.20;;;;;;5000459;28;20309;-92
2022/07/28 09:31:14;;;;;;;;;;;38.30;18.20;;;;;;4983437;28;19918;-92
2022/07/28 09:33:51;;;;;;;;;;;38.30;17.90;;;;;;4984680;28;19902;-92
2022/07/28 09:36:17;;;;;;;;;;;38.20;17.90;;;;;;4994585;28;20005;-91
2022/07/28 09:38:42;;;;;;;;;;;38.30;18.10;;;;;;4995470;28;19964;-92
2022/07/28 09:41:08;;;;;;;;;;;38.50;18.20;;;;;;4995137;28;19925;-91
2022/07/28 09:43:38;;;;;;;;;;;38.40;17.90;;;;;;4982034;28;19913;-92
2022/07/28 09:46:08;;;;;;;;;;;38.30;17.80;;;;;;4985418;28;19966;-91
2022/07/28 09:48:48;;;;;;;;;;;38.30;17.90;;;;;;4964186;28;19930;-92
2022/07/28 09:51:20;;;;;;;;;;;38.30;17.90;;;;;;4999110;28;19937;-90
2022/07/28 09:53:45;;;;;;;;;;;38.10;18.20;;;;;;4990279;28;20333;-92
2022/07/28 09:56:12;;;;;;;;;;;38.10;18.10;;;;;;4980278;28;19925;-91
2022/07/28 09:58:38;;;;;;;;;;;38.00;17.90;;;;;;4983714;28;19918;-91
2022/07/28 10:01:03;;;;;;;;;;;38.00;18.10;;;;;;4992210;28;19914;-92
2022/07/28 10:04:16;;;;;;;;;;;38.00;17.90;;;;;;5003592;28;19981;-91
2022/07/28 10:07:12;;;;;;;;;;;38.20;18.40;;;;;;4979652;28;19949;-91
2022/07/28 10:09:39;;;;;;;;;;;38.70;18.20;;;;;;4997874;28;19977;-90
2022/07/28 10:12:18;;;;;;;;;;;38.70;17.70;;;;;;4991466;28;19960;-91
2022/07/28 10:14:45;;;;;;;;;;;38.80;17.60;;;;;;4993567;28;19942;-91
2022/07/28 10:17:21;;;;;;;;;;;39.10;17.60;;;;;;5005210;28;19910;-92
2022/07/28 10:19:53;;;;;;;;;;;39.40;17.70;;;;;;4990008;28;19977;-92
2022/07/28 10:22:27;;;;;;;;;;;39.90;17.40;;;;;;4988533;28;19918;-91
2022/07/28 10:24:53;;;;;;;;;;;40.00;16.90;;;;;;4992927;28;19914;-92
2022/07/28 10:27:20;;;;;;;;;;;40.20;17.20;;;;;;4976330;28;19956;-91
2022/07/28 10:29:46;;;;;;;;;;;40.70;17.00;;;;;;4991667;28;19972;-92
2022/07/28 10:32:12;;;;;;;;;;;40.90;16.60;;;;;;5012064;28;20709;-92
2022/07/28 10:34:42;;;;;;;;;;;41.30;16.30;;;;;;5000309;28;19936;-92
2022/07/28 10:37:09;;;;;;;;;;;41.10;15.40;;;;;;4992749;28;19922;-93
2022/07/28 10:39:39;;;;;;;;;;;40.50;15.70;;;;;;4991576;28;19917;-92
2022/07/28 10:42:07;;;;;;;;;;;40.00;15.90;;;;;;4989082;28;19926;-92
2022/07/28 10:44:34;;;;;;;;;;;39.90;16.30;;;;;;4986633;28;19918;-91
2022/07/28 10:47:00;;;;;;;;;;;40.10;16.50;;;;;;5000364;28;19918;-91
2022/07/28 10:49:27;;;;;;;;;;;40.30;16.60;;;;;;4996873;28;20376;-90
2022/07/28 10:51:59;;;;;;;;;;;40.40;16.10;;;;;;4987365;28;19961;-92
2022/07/28 10:54:26;;;;;;;;;;;40.40;16.00;;;;;;5003635;28;19972;-92
2022/07/28 10:56:53;;;;;;;;;;;40.40;16.10;;;;;;4999409;28;19936;-91
2022/07/28 10:59:38;;;;;;;;;;;40.40;16.00;;;;;;4988818;28;19933;-91
2022/07/28 11:02:31;;;;;;;;;;;40.50;16.00;;;;;;4997687;28;19918;-92
2022/07/28 11:05:02;;;;;;;;;;;40.60;16.10;;;;;;4990309;28;19914;-91
2022/07/28 11:07:37;;;;;;;;;;;40.50;16.20;;;;;;4998400;28;20000;-90
2022/07/28 11:10:14;;;;;;;;;;;40.40;16.00;;;;;;4993227;28;19918;-91
2022/07/28 11:12:43;;;;;;;;;;;40.40;16.10;;;;;;4984688;28;20366;-91
2022/07/28 11:15:30;;;;;;;;;;;40.60;16.10;;;;;;5005304;28;19921;-91
2022/07/28 11:17:57;;;;;;;;;;;40.90;15.90;;;;;;4994339;28;19918;-90
2022/07/28 11:20:41;;;;;;;;;;;41.10;15.90;;;;;;4988277;28;19960;-91
2022/07/28 11:23:26;;;;;;;;;;;41.30;15.90;;;;;;5003519;28;19921;-91
2022/07/28 11:26:17;;;;;;;;;;;40.80;15.70;;;;;;4998015;28;19918;-93
2022/07/28 11:29:07;;;;;;;;;;;40.40;15.70;;;;;;4971351;28;20701;-92
2022/07/28 11:31:47;;;;;;;;;;;40.30;16.00;;;;;;4993964;28;19914;-91
2022/07/28 11:34:20;;;;;;;;;;;40.60;15.80;;;;;;4994664;28;20000;-91
2022/07/28 11:37:05;;;;;;;;;;;40.90;15.70;;;;;;4992644;28;19920;-92
2022/07/28 11:39:31;;;;;;;;;;;41.10;15.70;;;;;;5004085;28;19991;-91
2022/07/28 11:41:57;;;;;;;;;;;41.30;15.40;;;;;;4982292;28;19914;-91
2022/07/28 11:44:23;;;;;;;;;;;41.40;15.30;;;;;;4996491;28;19937;-91
2022/07/28 11:46:48;;;;;;;;;;;41.40;15.00;;;;;;4983084;28;19922;-91
2022/07/28 11:49:15;;;;;;;;;;;40.90;15.20;;;;;;4988372;28;19928;-90
2022/07/28 11:52:01;;;;;;;;;;;40.10;15.80;;;;;;4983066;28;19922;-92
2022/07/28 11:54:26;;;;;;;;;;;40.00;16.10;;;;;;4988479;28;19970;-92
2022/07/28 11:56:56;;;;;;;;;;;40.50;16.10;;;;;;4980285;28;20474;-91
2022/07/28 11:59:21;;;;;;;;;;;40.90;15.90;;;;;;4978738;28;19934;-91
2022/07/28 12:01:51;;;;;;;;;;;40.90;15.40;;;;;;4976355;28;19902;-92
2022/07/28 12:04:17;;;;;;;;;;;40.90;15.50;;;;;;5001568;28;20008;-89
2022/07/28 12:06:43;;;;;;;;;;;40.70;15.70;;;;;;4999571;28;19945;-91
2022/07/28 12:09:09;;;;;;;;;;;40.80;15.70;;;;;;4976650;28;19942;-91
2022/07/28 12:11:36;;;;;;;;;;;40.90;15.50;;;;;;4979426;28;19929;-91
2022/07/28 12:14:02;;;;;;;;;;;40.80;15.20;;;;;;4989479;28;19968;-92
2022/07/28 12:16:28;;;;;;;;;;;40.90;15.40;;;;;;4997510;28;19918;-91
2022/07/28 12:18:53;;;;;;;;;;;40.80;15.50;;;;;;4992022;28;19961;-91
2022/07/28 12:21:41;;;;;;;;;;;41.00;15.50;;;;;;4984982;28;20457;-92
2022/07/28 12:24:08;;;;;;;;;;;41.30;15.20;;;;;;4986862;28;20022;-91
2022/07/28 12:26:34;;;;;;;;;;;41.60;15.30;;;;;;4999412;28;19914;-92
2022/07/28 12:29:01;;;;;;;;;;;41.90;14.70;;;;;;5001129;28;20420;-90
2022/07/28 12:31:31;;;;;;;;;;;41.80;14.50;;;;;;4994191;28;20278;-91
2022/07/28 12:34:05;;;;;;;;;;;41.50;14.90;;;;;;4995030;28;19914;-92
2022/07/28 12:36:32;;;;;;;;;;;41.30;15.00;;;;;;4995562;28;19965;-92
2022/07/28 12:39:00;;;;;;;;;;;41.10;15.20;;;;;;5003403;28;19989;-92
2022/07/28 12:41:36;;;;;;;;;;;40.40;15.20;;;;;;4985304;28;20292;-92
2022/07/28 12:44:04;;;;;;;;;;;39.50;15.60;;;;;;4998899;28;20646;-91
2022/07/28 12:46:29;;;;;;;;;;;38.70;16.30;;;;;;4989541;28;19926;-93
2022/07/28 12:48:56;;;;;;;;;;;38.40;16.60;;;;;;4998685;28;19910;-92
2022/07/28 12:51:37;;;;;;;;;;;37.90;16.70;;;;;;4993129;28;20429;-90
2022/07/28 12:54:04;;;;;;;;;;;37.30;17.10;;;;;;4991877;28;19946;-91
2022/07/28 12:56:42;;;;;;;;;;;36.70;17.70;;;;;;5001163;28;19982;-91
2022/07/28 12:59:17;;;;;;;;;;;36.70;17.90;;;;;;4990904;28;19994;-90
2022/07/28 13:01:46;;;;;;;;;;;37.00;17.80;;;;;;4981788;28;19914;-91
2022/07/28 13:04:12;;;;;;;;;;;37.40;17.70;;;;;;4987684;28;19925;-92
2022/07/28 13:06:39;;;;;;;;;;;37.70;17.60;;;;;;5006556;28;19930;-92
2022/07/28 13:09:05;;;;;;;;;;;37.80;17.70;;;;;;5020616;28;19910;-92
2022/07/28 13:11:34;;;;;;;;;;;37.70;17.80;;;;;;4992373;28;19918;-91
2022/07/28 13:13:59;;;;;;;;;;;37.50;18.00;;;;;;4971205;28;19961;-93
2022/07/28 13:16:26;;;;;;;;;;;37.30;17.90;;;;;;4973568;28;19918;-91
2022/07/28 13:18:53;;;;;;;;;;;36.90;18.20;;;;;;4986237;28;19918;-90
2022/07/28 13:21:42;;;;;;;;;;;36.50;18.20;;;;;;4988637;28;19918;-91
2022/07/28 13:24:11;;;;;;;;;;;36.10;18.60;;;;;;4983735;28;20302;-91
2022/07/28 13:26:40;;;;;;;;;;;35.60;19.00;;;;;;4983443;28;19914;-91
2022/07/28 13:29:10;;;;;;;;;;;35.20;19.10;;;;;;4994707;28;19918;-90
2022/07/28 13:31:36;;;;;;;;;;;34.80;19.50;;;;;;4989109;28;19941;-91
2022/07/28 13:34:05;;;;;;;;;;;34.60;19.90;;;;;;5001857;28;20393;-89
2022/07/28 13:36:31;;;;;;;;;;;34.50;20.10;;;;;;4996261;28;19910;-91
2022/07/28 13:38:57;;;;;;;;;;;34.40;20.00;;;;;;4984431;28;19914;-92
2022/07/28 13:41:24;;;;;;;;;;;34.30;20.10;;;;;;4987019;28;20386;-91
2022/07/28 13:43:51;;;;;;;;;;;34.20;20.30;;;;;;4991281;28;20071;-92
2022/07/28 13:46:18;;;;;;;;;;;34.00;20.30;;;;;;4996619;28;19918;-91
2022/07/28 13:48:43;;;;;;;;;;;33.80;20.30;;;;;;5002225;28;19983;-90
2022/07/28 13:51:09;;;;;;;;;;;33.50;20.40;;;;;;4992964;28;19918;-91
2022/07/28 13:53:39;;;;;;;;;;;33.50;20.60;;;;;;4989571;28;19916;-92
2022/07/28 13:56:05;;;;;;;;;;;33.40;20.70;;;;;;4993208;28;20009;-92
2022/07/28 13:58:30;;;;;;;;;;;33.30;20.90;;;;;;4999476;28;19916;-91
2022/07/28 14:01:00;;;;;;;;;;;33.30;20.90;;;;;;4993464;28;19922;-91
2022/07/28 14:03:45;;;;;;;;;;;33.10;20.90;;;;;;5013916;28;20417;-90
2022/07/28 14:06:14;;;;;;;;;;;32.90;20.90;;;;;;4997393;28;19921;-91
2022/07/28 14:08:41;;;;;;;;;;;32.80;20.90;;;;;;5008972;28;20377;-91
2022/07/28 14:11:07;;;;;;;;;;;32.80;21.00;;;;;;5000479;28;19923;-90
2022/07/28 14:13:35;;;;;;;;;;;33.10;21.00;;;;;;5012350;28;19940;-91
2022/07/28 14:16:00;;;;;;;;;;;33.30;20.90;;;;;;5007247;28;19914;-90
2022/07/28 14:18:26;;;;;;;;;;;33.40;20.70;;;;;;4999370;28;19928;-90
2022/07/28 14:20:54;;;;;;;;;;;33.30;20.90;;;;;;5025590;28;19901;-91
2022/07/28 14:23:22;;;;;;;;;;;33.10;20.90;;;;;;5019924;28;20381;-90
2022/07/28 14:25:48;;;;;;;;;;;32.90;21.20;;;;;;5005211;28;19932;-91
2022/07/28 14:28:13;;;;;;;;;;;32.80;21.20;;;;;;4985850;28;19922;-90